Aviation Digital Data Service (ADDS)

Output produced by METARs form (2059 UTC 22 June 2018)
found at http://aviationweather.gov/adds/metars/
 
KSMF 222053Z VRB03KT 10SM FEW250 33/13 A2985 RMK AO2 SLP106 T03330128 58019
KSMF 221720Z 2218/2318 33007KT P6SM SKC 
     FM230300 16006KT P6SM SKC 
     FM231500 34009KT P6SM SKC